createdAt,value
2022-12-11T00:00:41.608Z,45.31
2022-12-11T00:03:45.064Z,45.32
2022-12-11T00:06:50.595Z,45.41
2022-12-11T00:09:53.998Z,45.22
2022-12-11T00:12:56.996Z,45.16
2022-12-11T00:16:00.815Z,45.39
2022-12-11T00:19:04.163Z,45.27
2022-12-11T00:22:09.179Z,45.15
2022-12-11T00:25:12.417Z,45.22
2022-12-11T00:28:18.089Z,44.96
2022-12-11T00:31:22.046Z,44.63
2022-12-11T00:34:25.160Z,45.19
2022-12-11T00:37:29.729Z,45.14
2022-12-11T00:40:35.209Z,44.60
2022-12-11T00:43:38.386Z,44.97
2022-12-11T00:46:41.506Z,44.77
2022-12-11T00:49:49.573Z,44.66
2022-12-11T00:52:54.416Z,44.65
2022-12-11T00:55:57.409Z,44.97
2022-12-11T00:59:00.473Z,44.75
2022-12-11T01:02:03.529Z,44.51
2022-12-11T01:05:07.683Z,45.02
2022-12-11T01:08:12.363Z,44.58
2022-12-11T01:11:17.843Z,45.15
2022-12-11T01:14:21.052Z,45.06
2022-12-11T01:17:24.173Z,45.16
2022-12-11T01:20:28.742Z,44.92
2022-12-11T01:23:33.341Z,44.58
2022-12-11T01:26:36.341Z,44.54
2022-12-11T01:29:39.413Z,44.97
2022-12-11T01:32:42.508Z,44.36
2022-12-11T01:35:45.457Z,44.50
2022-12-11T01:38:50.653Z,44.72
2022-12-11T01:41:58.410Z,44.70
2022-12-11T01:45:33.338Z,44.73
2022-12-11T01:48:41.928Z,44.76
2022-12-11T01:51:50.440Z,44.40
2022-12-11T01:54:54.876Z,44.81
2022-12-11T01:57:57.913Z,44.70
2022-12-11T02:01:02.494Z,44.44
2022-12-11T02:04:07.892Z,44.70
2022-12-11T02:07:11.121Z,44.81
2022-12-11T02:10:16.283Z,44.21
2022-12-11T02:13:28.095Z,44.49
2022-12-11T02:16:42.967Z,44.48
2022-12-11T02:19:53.841Z,44.37
2022-12-11T02:23:20.492Z,44.33
2022-12-11T02:26:51.062Z,44.28
2022-12-11T02:30:01.684Z,44.20
2022-12-11T02:33:04.924Z,44.64
2022-12-11T02:36:10.900Z,44.76
2022-12-11T02:39:17.100Z,44.72
2022-12-11T02:42:21.695Z,44.47
2022-12-11T02:45:28.557Z,44.85
2022-12-11T02:48:33.456Z,44.46
2022-12-11T02:51:40.345Z,44.23
2022-12-11T02:54:45.899Z,44.28
2022-12-11T02:57:53.062Z,44.55
2022-12-11T03:00:57.783Z,44.23
2022-12-11T03:04:00.921Z,44.23
2022-12-11T03:07:12.440Z,44.20
2022-12-11T03:10:18.981Z,44.17
2022-12-11T03:13:24.156Z,44.70
2022-12-11T03:16:35.825Z,44.54
2022-12-11T03:19:42.772Z,44.77
2022-12-11T03:22:52.214Z,44.13
2022-12-11T03:25:58.215Z,44.63
2022-12-11T03:29:05.936Z,44.54
2022-12-11T03:32:14.553Z,44.33
2022-12-11T03:35:22.073Z,44.53
2022-12-11T03:38:29.382Z,43.93
2022-12-11T03:41:34.786Z,44.30
2022-12-11T03:44:38.170Z,44.55
2022-12-11T03:47:44.559Z,44.50
2022-12-11T03:50:49.696Z,44.56
2022-12-11T03:53:54.400Z,43.97
2022-12-11T03:57:00.454Z,44.09
2022-12-11T04:00:05.173Z,44.21
2022-12-11T04:03:16.520Z,44.08
2022-12-11T04:06:19.560Z,44.06
2022-12-11T04:09:22.672Z,43.84
2022-12-11T04:12:25.759Z,43.91
2022-12-11T04:15:28.782Z,44.25
2022-12-11T04:18:52.976Z,44.39
2022-12-11T04:22:13.390Z,44.18
2022-12-11T04:25:16.448Z,43.96
2022-12-11T04:28:19.523Z,43.68
2022-12-11T04:31:23.936Z,43.98
2022-12-11T04:34:28.358Z,44.17
2022-12-11T04:37:31.603Z,44.14
2022-12-11T04:40:34.627Z,44.00
2022-12-11T04:43:38.004Z,44.11
2022-12-11T04:46:41.086Z,44.13
2022-12-11T04:49:45.566Z,44.31
2022-12-11T04:52:48.574Z,44.04
2022-12-11T04:55:51.929Z,44.19
2022-12-11T04:58:54.978Z,44.07
2022-12-11T05:01:58.013Z,44.10
2022-12-11T05:05:03.316Z,43.95
2022-12-11T05:08:06.866Z,44.21
2022-12-11T05:11:11.991Z,44.10
2022-12-11T05:14:15.228Z,44.01
2022-12-11T05:17:18.262Z,44.17
2022-12-11T05:20:22.673Z,43.89
2022-12-11T05:23:25.823Z,43.71
2022-12-11T05:26:28.838Z,44.15
2022-12-11T05:29:31.888Z,43.79
2022-12-11T05:32:34.957Z,44.27
2022-12-11T05:35:39.340Z,44.12
2022-12-11T05:38:42.300Z,43.91
2022-12-11T05:41:45.414Z,43.73
2022-12-11T05:44:50.455Z,44.00
2022-12-11T05:47:53.492Z,43.94
2022-12-11T05:51:01.926Z,43.70
2022-12-11T05:54:05.304Z,43.52
2022-12-11T05:57:08.396Z,43.64
2022-12-11T06:00:13.958Z,44.21
2022-12-11T06:03:17.143Z,44.20
2022-12-11T06:06:21.727Z,43.90
2022-12-11T06:09:24.758Z,43.81
2022-12-11T06:12:28.492Z,44.11
2022-12-11T06:15:31.552Z,44.03
2022-12-11T06:18:37.562Z,43.85
2022-12-11T06:21:42.191Z,44.03
2022-12-11T06:24:45.268Z,44.03
2022-12-11T06:27:48.332Z,43.36
2022-12-11T06:30:51.300Z,43.73
2022-12-11T06:33:54.338Z,43.83
2022-12-11T06:36:58.903Z,43.71
2022-12-11T06:40:01.903Z,43.62
2022-12-11T06:43:04.916Z,43.24
2022-12-11T06:46:09.079Z,43.76
2022-12-11T06:49:12.093Z,43.21
2022-12-11T06:52:18.597Z,43.47
2022-12-11T06:55:22.052Z,43.51
2022-12-11T06:58:25.134Z,43.21
2022-12-11T07:01:29.433Z,43.49
2022-12-11T07:04:32.806Z,43.51
2022-12-11T07:07:37.253Z,43.63
2022-12-11T07:10:40.544Z,43.43
2022-12-11T07:13:44.008Z,43.91
2022-12-11T07:16:47.064Z,43.50
2022-12-11T07:19:50.127Z,43.55
2022-12-11T07:22:55.408Z,43.72
2022-12-11T07:26:01.458Z,43.81
2022-12-11T07:29:09.856Z,43.54
2022-12-11T07:32:49.752Z,43.26
2022-12-11T07:36:34.258Z,43.69
2022-12-11T07:39:51.537Z,43.79
2022-12-11T07:43:07.318Z,43.90
2022-12-11T07:46:40.645Z,43.78
2022-12-11T07:49:43.763Z,43.46
2022-12-11T07:52:46.867Z,43.61
2022-12-11T07:55:51.371Z,43.03
2022-12-11T07:58:54.457Z,43.14
2022-12-11T08:01:57.483Z,42.59
2022-12-11T08:05:00.532Z,42.32
2022-12-11T08:08:03.579Z,42.09
2022-12-11T08:11:20.997Z,42.20
2022-12-11T08:14:24.052Z,41.64
2022-12-11T08:17:30.258Z,42.04
2022-12-11T08:20:35.905Z,42.38
2022-12-11T08:23:39.294Z,42.30
2022-12-11T08:26:43.781Z,43.11
2022-12-11T08:29:47.554Z,43.26
2022-12-11T08:32:50.553Z,43.82
2022-12-11T08:35:53.569Z,44.25
2022-12-11T08:38:57.492Z,44.74
2022-12-11T08:42:01.949Z,44.66
2022-12-11T08:45:05.486Z,44.84
2022-12-11T08:48:08.579Z,45.19
2022-12-11T08:51:14.880Z,45.44
2022-12-11T08:54:17.939Z,45.52
2022-12-11T08:57:24.051Z,45.29
2022-12-11T09:00:27.051Z,45.37
2022-12-11T09:03:30.061Z,45.36
2022-12-11T09:06:34.585Z,45.41
2022-12-11T09:09:37.631Z,45.44
2022-12-11T09:12:42.823Z,45.31
2022-12-11T09:15:45.871Z,45.65
2022-12-11T09:18:50.913Z,46.35
2022-12-11T09:21:53.903Z,47.13
2022-12-11T09:24:56.913Z,46.62
2022-12-11T09:28:01.577Z,46.70
2022-12-11T09:31:10.345Z,47.14
2022-12-11T09:34:14.958Z,47.30
2022-12-11T09:37:18.065Z,46.84
2022-12-11T09:40:22.166Z,47.13
2022-12-11T09:43:42.290Z,47.29
2022-12-11T09:46:46.299Z,46.79
2022-12-11T09:49:52.411Z,47.26
2022-12-11T09:53:05.489Z,47.18
2022-12-11T09:56:17.684Z,46.90
2022-12-11T09:59:32.609Z,46.65
2022-12-11T10:02:50.151Z,47.09
2022-12-11T10:06:04.446Z,47.06
2022-12-11T10:09:19.072Z,47.74
2022-12-11T10:12:38.249Z,48.09
2022-12-11T10:15:50.671Z,48.85
2022-12-11T10:18:54.409Z,50.17
2022-12-11T10:21:58.432Z,50.71
2022-12-11T10:25:12.351Z,51.26
2022-12-11T10:28:17.329Z,50.33
2022-12-11T10:31:28.672Z,49.92
2022-12-11T10:34:36.202Z,50.07
2022-12-11T10:37:41.088Z,50.11
2022-12-11T10:40:46.763Z,49.47
2022-12-11T10:43:51.743Z,49.36
2022-12-11T10:47:07.342Z,49.77
2022-12-11T10:50:25.052Z,49.34
2022-12-11T10:53:29.187Z,49.51
2022-12-11T10:56:35.340Z,48.95
2022-12-11T10:59:42.296Z,49.13
2022-12-11T11:02:47.306Z,48.75
2022-12-11T11:05:51.276Z,48.72
2022-12-11T11:08:55.849Z,48.68
2022-12-11T11:12:01.908Z,48.78
2022-12-11T11:15:13.788Z,49.01
2022-12-11T11:18:27.134Z,48.72
2022-12-11T11:21:31.851Z,48.53
2022-12-11T11:24:39.685Z,48.53
2022-12-11T11:27:46.510Z,48.44
2022-12-11T11:31:00.372Z,48.50
2022-12-11T11:34:10.602Z,48.85
2022-12-11T11:37:26.184Z,48.74
2022-12-11T11:40:31.884Z,48.57
2022-12-11T11:43:41.309Z,48.75
2022-12-11T11:46:50.448Z,48.19
2022-12-11T11:50:03.319Z,48.20
2022-12-11T11:53:11.700Z,48.79
2022-12-11T11:56:21.431Z,49.28
2022-12-11T11:59:29.248Z,49.55
2022-12-11T12:02:32.362Z,49.66
2022-12-11T12:05:45.561Z,50.16
2022-12-11T12:08:59.575Z,50.24
2022-12-11T12:12:22.821Z,50.44
2022-12-11T12:15:36.979Z,51.30
2022-12-11T12:18:52.585Z,51.91
2022-12-11T12:21:58.503Z,52.33
2022-12-11T12:25:16.229Z,52.26
2022-12-11T12:28:28.983Z,52.38
2022-12-11T12:31:45.884Z,52.08
2022-12-11T12:35:06.411Z,52.16
2022-12-11T12:38:18.551Z,51.91
2022-12-11T12:41:26.011Z,52.23
2022-12-11T12:44:38.470Z,51.97
2022-12-11T12:47:46.646Z,51.93
2022-12-11T12:50:52.437Z,52.21
2022-12-11T12:54:00.467Z,51.78
2022-12-11T12:57:05.386Z,50.57
2022-12-11T13:00:13.076Z,50.51
2022-12-11T13:03:20.387Z,50.35
2022-12-11T13:06:32.095Z,50.87
2022-12-11T13:09:36.997Z,50.81
2022-12-11T13:12:45.729Z,50.42
2022-12-11T13:15:48.771Z,50.25
2022-12-11T13:18:52.176Z,50.37
2022-12-11T13:21:59.912Z,50.24
2022-12-11T13:25:22.159Z,50.12
2022-12-11T13:28:28.757Z,50.46
2022-12-11T13:31:36.632Z,50.30
2022-12-11T13:34:42.064Z,50.39
2022-12-11T13:37:46.040Z,50.20
2022-12-11T13:40:54.567Z,50.17
2022-12-11T13:43:59.416Z,50.47
2022-12-11T13:47:04.849Z,49.79
2022-12-11T13:50:17.831Z,49.75
2022-12-11T13:53:22.541Z,50.12
2022-12-11T13:56:26.960Z,49.79
2022-12-11T13:59:33.799Z,49.83
2022-12-11T14:02:42.589Z,49.70
2022-12-11T14:05:45.803Z,49.96
2022-12-11T14:08:54.482Z,49.66
2022-12-11T14:11:59.409Z,49.81
2022-12-11T14:15:04.617Z,50.06
2022-12-11T14:18:07.847Z,49.77
2022-12-11T14:21:21.529Z,49.94
2022-12-11T14:24:24.781Z,49.54
2022-12-11T14:27:29.450Z,49.46
2022-12-11T14:30:47.843Z,49.97
2022-12-11T14:33:54.853Z,49.71
2022-12-11T14:37:00.162Z,49.56
2022-12-11T14:40:08.269Z,49.49
2022-12-11T14:43:16.656Z,49.67
2022-12-11T14:46:23.203Z,49.99
2022-12-11T14:49:31.241Z,49.90
2022-12-11T14:52:38.054Z,49.96
2022-12-11T14:55:42.247Z,50.20
2022-12-11T14:58:50.833Z,50.03
2022-12-11T15:02:02.627Z,49.58
2022-12-11T15:05:15.122Z,49.69
2022-12-11T15:08:25.001Z,49.12
2022-12-11T15:11:33.184Z,49.42
2022-12-11T15:14:37.690Z,49.38
2022-12-11T15:17:41.591Z,50.07
2022-12-11T15:20:44.677Z,49.60
2022-12-11T15:23:53.524Z,49.87
2022-12-11T15:26:59.883Z,49.59
2022-12-11T15:30:15.931Z,49.59
2022-12-11T15:33:22.374Z,47.69
2022-12-11T15:36:27.814Z,46.13
2022-12-11T15:39:30.882Z,42.21
2022-12-11T15:42:39.133Z,42.97
2022-12-11T15:45:44.336Z,42.28
2022-12-11T15:48:48.989Z,41.79
2022-12-11T15:51:52.871Z,41.00
2022-12-11T15:54:55.936Z,40.44
2022-12-11T15:58:01.866Z,40.62
2022-12-11T16:01:06.485Z,40.13
2022-12-11T16:04:09.528Z,39.87
2022-12-11T16:07:18.654Z,39.17
2022-12-11T16:10:23.345Z,39.06
2022-12-11T16:13:26.427Z,38.83
2022-12-11T16:16:31.315Z,38.73
2022-12-11T16:19:34.623Z,38.66
2022-12-11T16:22:38.240Z,38.67
2022-12-11T16:25:43.458Z,36.82
2022-12-11T16:28:46.532Z,37.56
2022-12-11T16:31:51.059Z,37.59
2022-12-11T16:34:54.201Z,37.34
2022-12-11T16:37:57.728Z,37.83
2022-12-11T16:41:02.006Z,38.36
2022-12-11T16:44:05.550Z,39.09
2022-12-11T16:47:09.957Z,38.68
2022-12-11T16:50:15.279Z,38.70
2022-12-11T16:53:18.379Z,39.86
2022-12-11T16:56:21.427Z,40.13
2022-12-11T16:59:24.526Z,39.91
2022-12-11T17:02:29.309Z,40.51
2022-12-11T17:05:32.279Z,40.42
2022-12-11T17:08:35.305Z,40.33
2022-12-11T17:11:38.395Z,40.87
2022-12-11T17:14:41.399Z,40.88
2022-12-11T17:17:45.831Z,40.81
2022-12-11T17:20:48.933Z,41.43
2022-12-11T17:23:52.532Z,41.15
2022-12-11T17:26:56.401Z,41.54
2022-12-11T17:29:59.431Z,41.08
2022-12-11T17:33:04.598Z,41.35
2022-12-11T17:36:08.963Z,41.29
2022-12-11T17:39:11.988Z,41.36
2022-12-11T17:42:15.052Z,41.19
2022-12-11T17:45:18.247Z,41.34
2022-12-11T17:48:23.172Z,40.98
2022-12-11T17:51:26.130Z,40.89
2022-12-11T17:54:29.234Z,40.78
2022-12-11T17:57:32.551Z,41.15
2022-12-11T18:00:36.280Z,40.34
2022-12-11T18:03:41.335Z,40.93
2022-12-11T18:06:45.695Z,40.69
2022-12-11T18:09:49.006Z,38.38
2022-12-11T18:12:52.031Z,36.98
2022-12-11T18:16:01.902Z,36.71
2022-12-11T18:19:08.485Z,35.66
2022-12-11T18:22:11.515Z,35.66
2022-12-11T18:25:14.787Z,34.19
2022-12-11T18:28:18.428Z,33.60
2022-12-11T18:31:22.940Z,33.80
2022-12-11T18:34:27.461Z,33.66
2022-12-11T18:37:31.410Z,33.78
2022-12-11T18:40:34.565Z,33.38
2022-12-11T18:43:38.240Z,33.36
2022-12-11T18:46:41.373Z,33.48
2022-12-11T18:49:45.951Z,33.81
2022-12-11T18:52:48.968Z,34.41
2022-12-11T18:55:57.123Z,34.57
2022-12-11T18:59:03.494Z,35.14
2022-12-11T19:02:06.612Z,35.32
2022-12-11T19:05:11.801Z,35.39
2022-12-11T19:08:16.479Z,35.43
2022-12-11T19:11:22.939Z,35.71
2022-12-11T19:14:26.050Z,36.00
2022-12-11T19:17:29.194Z,36.55
2022-12-11T19:20:56.751Z,36.33
2022-12-11T19:23:59.478Z,36.52
2022-12-11T19:27:02.520Z,37.03
2022-12-11T19:30:06.517Z,36.74
2022-12-11T19:33:09.684Z,36.86
2022-12-11T19:36:16.717Z,37.17
2022-12-11T19:39:20.071Z,37.12
2022-12-11T19:42:23.100Z,37.72
2022-12-11T19:45:27.142Z,37.52
2022-12-11T19:48:30.716Z,38.02
2022-12-11T19:51:38.665Z,38.22
2022-12-11T19:54:41.751Z,37.73
2022-12-11T19:57:44.887Z,38.33
2022-12-11T20:00:48.081Z,37.98
2022-12-11T20:03:51.256Z,38.48
2022-12-11T20:06:55.662Z,38.23
2022-12-11T20:10:00.266Z,38.62
2022-12-11T20:13:03.341Z,38.71
2022-12-11T20:16:07.562Z,38.36
2022-12-11T20:19:10.633Z,38.45
2022-12-11T20:22:15.195Z,38.92
2022-12-11T20:25:18.289Z,38.89
2022-12-11T20:28:22.193Z,38.56
2022-12-11T20:31:27.461Z,39.13
2022-12-11T20:34:30.516Z,39.18
2022-12-11T20:37:35.791Z,38.59
2022-12-11T20:40:39.066Z,38.71
2022-12-11T20:43:42.354Z,39.23
2022-12-11T20:46:45.423Z,39.25
2022-12-11T20:49:49.442Z,39.33
2022-12-11T20:52:53.902Z,39.23
2022-12-11T20:55:56.984Z,39.50
2022-12-11T20:59:00.941Z,39.22
2022-12-11T21:02:05.146Z,39.13
2022-12-11T21:05:08.887Z,39.39
2022-12-11T21:08:13.895Z,39.04
2022-12-11T21:11:17.429Z,39.40
2022-12-11T21:14:21.304Z,38.79
2022-12-11T21:17:24.404Z,38.88
2022-12-11T21:20:27.559Z,38.85
2022-12-11T21:23:32.029Z,39.04
2022-12-11T21:26:35.142Z,39.04
2022-12-11T21:29:38.745Z,39.14
2022-12-11T21:32:42.342Z,38.76
2022-12-11T21:35:45.359Z,38.87
2022-12-11T21:38:50.199Z,38.90
2022-12-11T21:41:53.362Z,39.09
2022-12-11T21:45:37.584Z,39.28
2022-12-11T21:48:19.374Z,39.43
2022-12-11T21:51:24.538Z,39.14
2022-12-11T21:54:28.958Z,39.02
2022-12-11T21:57:31.998Z,39.59
2022-12-11T22:00:36.972Z,39.05
2022-12-11T22:03:40.048Z,39.52
2022-12-11T22:06:43.674Z,39.40
2022-12-11T22:09:48.138Z,38.85
2022-12-11T22:12:51.095Z,39.11
2022-12-11T22:15:54.224Z,38.90
2022-12-11T22:18:57.270Z,38.86
2022-12-11T22:22:00.245Z,39.33
2022-12-11T22:25:07.104Z,39.08
2022-12-11T22:28:10.117Z,38.97
2022-12-11T22:31:13.789Z,39.24
2022-12-11T22:34:16.853Z,39.11
2022-12-11T22:37:19.858Z,39.12
2022-12-11T22:40:24.492Z,38.79
2022-12-11T22:43:27.527Z,38.53
2022-12-11T22:46:31.901Z,38.83
2022-12-11T22:49:34.938Z,38.64
2022-12-11T22:52:37.948Z,39.08
2022-12-11T22:55:42.331Z,39.07
2022-12-11T22:58:45.410Z,38.42
2022-12-11T23:01:48.764Z,38.40
2022-12-11T23:04:51.793Z,38.53
2022-12-11T23:07:54.980Z,38.91
2022-12-11T23:10:59.565Z,38.60
2022-12-11T23:14:03.112Z,38.62
2022-12-11T23:17:06.218Z,38.73
2022-12-11T23:20:10.937Z,38.25
2022-12-11T23:23:14.388Z,38.30
2022-12-11T23:26:20.520Z,38.27
2022-12-11T23:29:23.574Z,38.57
2022-12-11T23:32:26.650Z,38.75
2022-12-11T23:35:29.665Z,38.08
2022-12-11T23:38:33.013Z,38.39
2022-12-11T23:41:37.812Z,38.59
2022-12-11T23:44:40.837Z,38.34
2022-12-11T23:47:43.942Z,38.51
2022-12-11T23:50:48.137Z,38.75
2022-12-11T23:53:51.911Z,38.61
2022-12-11T23:56:56.393Z,38.60
2022-12-11T23:59:59.397Z,38.64
